Time;durP1;ratioP1;P1;durP2;ratioP2;P2;SDS_P1;SDS_P2;PMS_P1;PMS_P2;Temp;Humidity;BMP_temperature;BMP_pressure;BME280_temperature;BME280_humidity;BME280_pressure;Samples;Min_cycle;Max_cycle;Signal;HPM_P1;HPM_P2
2022/12/16 00:00:49;;;;;;;;;;;;;;;4.48;77.75;99684.41;5286527;33;35945;-73
2022/12/16 00:03:52;;;;;;;;;;;;;;;5.32;74.39;99677.75;5272861;33;35545;-72
2022/12/16 00:06:55;;;;;;;;;;;;;;;5.68;73.17;99675.81;5297010;32;35858;-72
2022/12/16 00:09:57;;;;;;;;;;;;;;;5.26;75.18;99675.31;5281849;33;35207;-72
2022/12/16 00:12:59;;;;;;;;;;;;;;;5.09;76.10;99672.38;5282182;33;35874;-73
2022/12/16 00:16:07;;;;;;;;;;;;;;;5.80;73.59;99656.34;5277949;33;35024;-71
2022/12/16 00:19:09;;;;;;;;;;;;;;;5.10;75.62;99661.91;5282952;32;36085;-71
2022/12/16 00:22:11;;;;;;;;;;;;;;;5.59;73.73;99654.38;5286261;33;34901;-71
2022/12/16 00:25:13;;;;;;;;;;;;;;;5.86;72.47;99648.31;5271625;33;35324;-72
2022/12/16 00:28:15;;;;;;;;;;;;;;;5.00;75.74;99652.63;5295384;33;45020;-71
2022/12/16 00:31:17;;;;;;;;;;;;;;;5.34;74.17;99657.69;5267796;33;35490;-71
2022/12/16 00:34:19;;;;;;;;;;;;;;;5.30;74.71;99658.72;5280938;33;35586;-72
2022/12/16 00:37:21;;;;;;;;;;;;;;;4.69;77.34;99660.41;5278321;33;35766;-72
2022/12/16 00:40:23;;;;;;;;;;;;;;;4.91;78.32;99667.66;5259776;32;37008;-72
2022/12/16 00:43:25;;;;;;;;;;;;;;;4.80;78.05;99658.37;5296671;32;35891;-71
2022/12/16 00:46:26;;;;;;;;;;;;;;;5.22;75.51;99657.25;5270521;33;35168;-71
2022/12/16 00:49:29;;;;;;;;;;;;;;;5.05;76.41;99652.50;5289337;33;36253;-71
2022/12/16 00:52:31;;;;;;;;;;;;;;;5.79;73.84;99652.00;5283802;32;35894;-71
2022/12/16 00:55:33;;;;;;;;;;;;;;;4.04;82.03;99662.94;5290509;32;36088;-72
2022/12/16 00:58:35;;;;;;;;;;;;;;;4.95;78.05;99656.25;5291820;33;35913;-72
2022/12/16 01:01:36;;;;;;;;;;;;;;;4.86;79.41;99647.78;5271130;33;36578;-72
2022/12/16 01:04:38;;;;;;;;;;;;;;;4.62;78.18;99645.84;5291036;33;35360;-70
2022/12/16 01:07:40;;;;;;;;;;;;;;;4.20;78.43;99634.81;5283220;32;36165;-72
2022/12/16 01:10:42;;;;;;;;;;;;;;;4.70;77.20;99624.81;5286831;33;35938;-72
2022/12/16 01:13:44;;;;;;;;;;;;;;;5.30;76.17;99618.78;5283434;33;34873;-71
2022/12/16 01:16:46;;;;;;;;;;;;;;;4.76;77.32;99609.88;5288953;32;45860;-71
2022/12/16 01:19:48;;;;;;;;;;;;;;;4.97;76.35;99599.78;5282362;33;36608;-71
2022/12/16 01:22:51;;;;;;;;;;;;;;;4.99;77.80;99591.00;5271904;33;35842;-72
2022/12/16 01:25:52;;;;;;;;;;;;;;;4.92;78.72;99594.69;5287687;33;35279;-71
2022/12/16 01:28:55;;;;;;;;;;;;;;;4.70;78.49;99591.84;5272685;33;35699;-71
2022/12/16 01:31:57;;;;;;;;;;;;;;;5.29;75.95;99571.03;5282598;33;35294;-71
2022/12/16 01:34:59;;;;;;;;;;;;;;;3.91;81.19;99566.19;5272092;33;35643;-71
2022/12/16 01:38:01;;;;;;;;;;;;;;;4.42;80.45;99564.88;5271538;33;34815;-72
2022/12/16 01:41:03;;;;;;;;;;;;;;;5.03;77.85;99556.19;5268884;33;35955;-72
2022/12/16 01:44:24;;;;;;;;;;;;;;;4.93;77.12;99544.31;5284328;32;35481;-72
2022/12/16 01:47:26;;;;;;;;;;;;;;;5.72;74.46;99533.16;5297426;32;35547;-72
2022/12/16 01:50:29;;;;;;;;;;;;;;;4.97;78.17;99524.25;5272391;33;35952;-72
2022/12/16 01:53:31;;;;;;;;;;;;;;;5.02;77.68;99514.53;5297664;33;36122;-72
2022/12/16 01:56:33;;;;;;;;;;;;;;;5.20;76.80;99515.72;5282145;33;35431;-73
2022/12/16 01:59:44;;;;;;;;;;;;;;;4.89;78.20;99501.91;5273259;33;37043;-71
2022/12/16 02:02:46;;;;;;;;;;;;;;;4.25;80.39;99503.75;5285882;33;44809;-71
2022/12/16 02:05:48;;;;;;;;;;;;;;;4.63;77.69;99488.78;5284820;32;35601;-70
2022/12/16 02:08:51;;;;;;;;;;;;;;;4.32;81.18;99486.22;5298291;33;35547;-70
2022/12/16 02:12:03;;;;;;;;;;;;;;;4.16;80.58;99470.19;5282203;33;35578;-70
2022/12/16 02:15:20;;;;;;;;;;;;;;;3.47;85.25;99466.78;5279878;33;35429;-71
2022/12/16 02:18:25;;;;;;;;;;;;;;;4.08;81.96;99441.78;5299023;32;47344;-71
2022/12/16 02:21:39;;;;;;;;;;;;;;;4.11;81.87;99433.03;5272326;33;34791;-71
2022/12/16 02:25:00;;;;;;;;;;;;;;;4.66;81.94;99417.59;5286805;33;35491;-71
2022/12/16 02:28:05;;;;;;;;;;;;;;;4.27;81.08;99397.91;5271002;33;35662;-72
2022/12/16 02:31:25;;;;;;;;;;;;;;;4.51;81.09;99379.88;5273076;33;35231;-72
2022/12/16 02:34:31;;;;;;;;;;;;;;;4.11;82.82;99365.44;5287150;33;35542;-72
2022/12/16 02:37:52;;;;;;;;;;;;;;;4.46;83.13;99355.75;5281727;32;36058;-70
2022/12/16 02:40:56;;;;;;;;;;;;;;;4.22;83.10;99371.19;5271509;33;44653;-71
2022/12/16 02:44:01;;;;;;;;;;;;;;;4.86;79.00;99363.16;5283877;32;35438;-71
2022/12/16 02:47:02;;;;;;;;;;;;;;;4.96;78.81;99355.88;5285150;32;35410;-70
2022/12/16 02:50:05;;;;;;;;;;;;;;;4.97;78.13;99373.22;5295263;32;35996;-71
2022/12/16 02:53:07;;;;;;;;;;;;;;;4.78;78.28;99371.19;5282395;32;34857;-70
2022/12/16 02:56:09;;;;;;;;;;;;;;;3.78;82.45;99381.09;5285880;33;35054;-71
2022/12/16 02:59:20;;;;;;;;;;;;;;;4.82;79.21;99378.00;5275060;33;35946;-71
2022/12/16 03:02:54;;;;;;;;;;;;;;;4.87;78.32;99396.09;5295719;32;44541;-71
2022/12/16 03:05:56;;;;;;;;;;;;;;;4.17;81.01;99391.25;5280419;33;35880;-71
2022/12/16 03:08:58;;;;;;;;;;;;;;;4.72;80.90;99388.78;5271579;33;35060;-70
2022/12/16 03:12:01;;;;;;;;;;;;;;;4.39;81.41;99370.69;5296554;32;36069;-71
2022/12/16 03:15:03;;;;;;;;;;;;;;;5.40;78.45;99362.22;5282151;33;35704;-70
2022/12/16 03:18:06;;;;;;;;;;;;;;;4.51;81.32;99369.47;5298576;32;35278;-71
2022/12/16 03:21:08;;;;;;;;;;;;;;;5.08;79.43;99347.66;5281410;32;35883;-71
2022/12/16 03:24:12;;;;;;;;;;;;;;;4.80;80.31;99325.13;5285943;33;36212;-71
2022/12/16 03:27:19;;;;;;;;;;;;;;;6.31;74.76;99320.69;5294760;32;43446;-70
2022/12/16 03:30:41;;;;;;;;;;;;;;;5.57;74.62;99335.56;5269131;33;35989;-71
2022/12/16 03:33:51;;;;;;;;;;;;;;;5.06;80.06;99279.16;5285602;33;36166;-71
2022/12/16 03:36:54;;;;;;;;;;;;;;;6.35;74.27;99298.78;5269571;33;44735;-72
2022/12/16 03:39:57;;;;;;;;;;;;;;;6.56;71.36;99325.78;5267732;32;36060;-72
2022/12/16 03:43:00;;;;;;;;;;;;;;;5.13;76.44;99324.91;5292468;32;36003;-71
2022/12/16 03:46:03;;;;;;;;;;;;;;;5.02;80.63;99340.03;5270358;33;36348;-71
2022/12/16 03:49:05;;;;;;;;;;;;;;;5.41;77.51;99341.34;5297806;32;35440;-71
2022/12/16 03:52:06;;;;;;;;;;;;;;;5.86;76.66;99324.06;5271967;32;35391;-71
2022/12/16 03:55:08;;;;;;;;;;;;;;;5.88;76.00;99327.50;5297466;32;35571;-71
2022/12/16 03:58:10;;;;;;;;;;;;;;;6.40;75.35;99309.91;5272094;33;35147;-71
2022/12/16 04:01:12;;;;;;;;;;;;;;;6.76;73.73;99313.66;5274958;33;36350;-71
2022/12/16 04:04:14;;;;;;;;;;;;;;;6.26;73.86;99320.03;5283485;33;36311;-71
2022/12/16 04:07:19;;;;;;;;;;;;;;;5.39;77.19;99309.25;5280819;32;44459;-71
2022/12/16 04:24:17;;;;;;;;;;;;;;;5.25;79.32;99285.44;5285850;33;35851;-71
2022/12/16 04:27:23;;;;;;;;;;;;;;;5.57;78.47;99270.41;5291601;33;36038;-72
2022/12/16 04:30:26;;;;;;;;;;;;;;;6.04;75.31;99276.47;5279237;32;36075;-71
